Time;durP1;ratioP1;P1;durP2;ratioP2;P2;SDS_P1;SDS_P2;PMS_P1;PMS_P2;Temp;Humidity;BMP_temperature;BMP_pressure;BME280_temperature;BME280_humidity;BME280_pressure;Samples;Min_cycle;Max_cycle;Signal;HPM_P1;HPM_P2
2023/03/29 00:00:43;;;;;;;8.30;4.07;;;;;;;4.27;79.14;101628.00;4977875;28;20037;-78
2023/03/29 00:03:08;;;;;;;6.47;3.83;;;;;;;4.30;78.55;101635.84;4994743;28;20026;-77
2023/03/29 00:05:34;;;;;;;6.28;3.80;;;;;;;4.28;79.07;101630.63;4997647;28;20053;-77
2023/03/29 00:08:02;;;;;;;8.00;4.13;;;;;;;4.28;78.92;101632.31;4979944;28;20029;-77
2023/03/29 00:10:30;;;;;;;8.38;4.07;;;;;;;4.29;79.19;101613.34;5000315;28;20425;-77
2023/03/29 00:12:56;;;;;;;5.65;3.80;;;;;;;4.29;79.02;101621.13;5000650;28;20347;-77
2023/03/29 00:15:22;;;;;;;6.15;3.80;;;;;;;4.29;79.25;101619.38;4997035;28;20106;-77
2023/03/29 00:17:47;;;;;;;5.80;3.53;;;;;;;4.30;78.47;101613.38;4999037;28;20461;-77
2023/03/29 00:20:13;;;;;;;7.57;3.50;;;;;;;4.33;78.93;101610.84;4997736;28;20034;-77
2023/03/29 00:22:40;;;;;;;7.15;3.92;;;;;;;4.30;79.35;101608.19;4996041;28;20045;-76
2023/03/29 00:25:08;;;;;;;6.13;3.80;;;;;;;4.29;79.23;101598.63;5001154;28;20385;-77
2023/03/29 00:27:33;;;;;;;8.27;3.90;;;;;;;4.30;78.63;101608.19;5014895;28;20129;-76
2023/03/29 00:29:59;;;;;;;7.30;3.95;;;;;;;4.30;78.90;101596.94;4997395;28;20034;-77
2023/03/29 00:32:25;;;;;;;6.70;3.60;;;;;;;4.30;78.94;101599.53;4998924;28;20033;-77
2023/03/29 00:34:50;;;;;;;9.40;3.72;;;;;;;4.35;78.10;101595.31;4998442;28;20053;-77
2023/03/29 00:37:17;;;;;;;5.07;2.97;;;;;;;4.37;79.10;101597.94;5015553;28;20057;-77
2023/03/29 00:39:44;;;;;;;6.40;3.85;;;;;;;4.35;79.05;101587.53;4999510;28;20468;-77
2023/03/29 00:42:15;;;;;;;9.90;3.92;;;;;;;4.36;78.80;101602.28;5000724;28;20106;-77
2023/03/29 00:44:59;;;;;;;6.32;3.45;;;;;;;4.39;77.82;101602.34;4998795;28;20064;-77
2023/03/29 00:47:47;;;;;;;7.38;3.42;;;;;;;4.44;77.67;101598.16;5015150;28;20040;-77
2023/03/29 00:50:21;;;;;;;6.93;3.30;;;;;;;4.51;77.59;101605.28;5012163;28;20022;-78
2023/03/29 00:52:53;;;;;;;5.80;3.47;;;;;;;4.50;77.84;101590.53;5013913;28;20030;-77
2023/03/29 00:55:22;;;;;;;8.68;3.95;;;;;;;4.51;77.45;101588.78;5011534;28;20037;-77
2023/03/29 00:57:51;;;;;;;7.00;4.18;;;;;;;4.50;78.00;101584.47;5014339;28;20025;-77
2023/03/29 01:00:19;;;;;;;6.88;3.63;;;;;;;4.51;78.25;101581.00;5016254;28;20088;-77
2023/03/29 01:02:52;;;;;;;6.93;3.30;;;;;;;4.50;77.73;101574.94;5012350;28;20082;-77
2023/03/29 01:05:47;;;;;;;6.78;4.05;;;;;;;4.53;78.26;101575.88;5003133;28;20389;-77
2023/03/29 01:08:28;;;;;;;6.40;3.25;;;;;;;4.51;78.16;101565.44;5013840;28;20072;-77
2023/03/29 01:11:06;;;;;;;5.50;3.65;;;;;;;4.57;77.32;101565.59;5015988;28;20026;-77
2023/03/29 01:14:05;;;;;;;8.13;3.47;;;;;;;4.60;77.19;101560.50;5003871;28;20697;-77
2023/03/29 01:16:32;;;;;;;5.93;3.40;;;;;;;4.61;77.81;101571.75;5011656;28;20068;-77
2023/03/29 01:18:59;;;;;;;7.30;3.38;;;;;;;4.60;78.01;101570.00;5014623;28;20087;-77
2023/03/29 01:21:28;;;;;;;8.75;3.88;;;;;;;4.61;78.44;101553.56;5016206;28;20044;-77
2023/03/29 01:24:17;;;;;;;6.00;3.30;;;;;;;4.63;78.55;101567.47;5015658;28;20048;-77
2023/03/29 01:27:11;;;;;;;10.05;3.40;;;;;;;4.63;79.23;101557.97;5015027;28;20025;-77
2023/03/29 01:30:14;;;;;;;5.90;3.40;;;;;;;4.64;78.64;101551.03;5014974;28;20029;-76
2023/03/29 01:32:43;;;;;;;7.93;3.40;;;;;;;4.64;79.60;101558.84;5011028;28;20025;-78
2023/03/29 01:35:14;;;;;;;6.63;3.30;;;;;;;4.64;79.52;101556.22;5015041;28;20396;-77
2023/03/29 01:37:48;;;;;;;8.50;3.40;;;;;;;4.66;79.39;101549.38;5012869;28;20049;-78
2023/03/29 01:40:14;;;;;;;7.40;3.63;;;;;;;4.66;79.17;101539.84;5012874;28;20408;-77
2023/03/29 01:42:59;;;;;;;7.63;3.13;;;;;;;4.67;80.11;101530.38;4983805;28;20096;-78
2023/03/29 01:45:43;;;;;;;7.80;3.55;;;;;;;4.67;80.79;101522.59;5011012;28;20036;-77
2023/03/29 01:48:34;;;;;;;6.53;3.78;;;;;;;4.69;81.02;101518.28;5012575;28;20090;-78
2023/03/29 01:51:27;;;;;;;6.72;3.30;;;;;;;4.73;81.02;101517.53;4989147;28;20041;-77
2023/03/29 01:54:08;;;;;;;8.05;3.72;;;;;;;4.75;81.17;101514.97;5004191;28;20029;-77
2023/03/29 01:56:38;;;;;;;9.38;3.47;;;;;;;4.74;81.64;101514.09;5010223;28;20476;-77
2023/03/29 01:59:08;;;;;;;10.50;3.70;;;;;;;4.75;81.55;101513.22;5012842;28;20546;-77
2023/03/29 02:01:41;;;;;;;5.35;3.22;;;;;;;4.78;81.34;101505.50;5001766;28;20037;-77
2023/03/29 02:04:11;;;;;;;6.20;3.35;;;;;;;4.79;81.94;101515.06;5000051;28;20028;-77
2023/03/29 02:06:38;;;;;;;;;;;;;;;4.84;80.93;101515.16;5012533;28;20033;-77
2023/03/29 02:09:05;;;;;;;8.13;3.28;;;;;;;4.81;81.30;101510.78;5013783;28;19913;-77
2023/03/29 02:11:33;;;;;;;7.47;3.65;;;;;;;4.83;81.91;101510.81;4994169;28;20034;-77
2023/03/29 02:13:59;;;;;;;6.53;3.33;;;;;;;4.86;82.17;101511.75;5013866;28;20040;-77
2023/03/29 02:16:25;;;;;;;7.55;3.70;;;;;;;4.87;82.25;101507.47;4992561;28;20455;-76
2023/03/29 02:18:55;;;;;;;7.80;3.45;;;;;;;4.89;81.99;101504.91;4988094;28;20450;-77
2023/03/29 02:21:52;;;;;;;10.65;3.53;;;;;;;4.90;82.17;101504.03;5013190;28;20036;-77
2023/03/29 02:24:20;;;;;;;7.32;3.70;;;;;;;4.89;82.27;101499.69;5007970;28;20037;-77
2023/03/29 02:26:45;;;;;;;8.68;4.20;;;;;;;4.88;82.53;101493.59;5013190;28;20477;-77
2023/03/29 02:29:11;;;;;;;7.47;3.35;;;;;;;4.89;83.17;101491.91;4997730;28;20038;-77
2023/03/29 02:31:55;;;;;;;9.65;3.88;;;;;;;4.87;83.27;101484.09;4983021;28;20598;-77
2023/03/29 02:34:40;;;;;;;7.22;4.00;;;;;;;4.85;83.10;101473.63;5011030;28;20366;-77
2023/03/29 02:37:11;;;;;;;7.28;3.58;;;;;;;4.83;83.29;101469.28;5013021;28;20029;-77
2023/03/29 02:39:37;;;;;;;;;;;;;;;4.88;82.94;101477.16;5012560;28;20473;-76
2023/03/29 02:42:04;;;;;;;6.50;3.60;;;;;;;4.82;83.45;101470.97;5012061;28;19963;-77
2023/03/29 02:44:35;;;;;;;8.00;4.25;;;;;;;4.83;83.22;101470.16;4998636;28;20065;-77
2023/03/29 02:47:15;;;;;;;5.50;3.20;;;;;;;4.84;83.03;101460.63;5011052;28;20136;-76
2023/03/29 02:49:41;;;;;;;7.57;3.47;;;;;;;4.82;82.74;101455.41;5012927;28;20033;-76
2023/03/29 02:52:17;;;;;;;8.20;3.65;;;;;;;4.85;82.53;101457.19;4994119;28;20103;-76
2023/03/29 02:54:46;;;;;;;7.43;3.33;;;;;;;4.85;82.46;101452.88;5011326;28;20029;-76
2023/03/29 02:57:12;;;;;;;10.32;3.80;;;;;;;4.85;82.59;101447.66;5012143;28;20115;-76
2023/03/29 02:59:39;;;;;;;6.40;3.40;;;;;;;4.89;81.87;101448.63;4993339;28;20038;-76
2023/03/29 03:02:05;;;;;;;8.40;3.63;;;;;;;4.91;81.33;101449.53;5012576;28;20056;-77
2023/03/29 03:04:34;;;;;;;6.18;3.25;;;;;;;4.94;80.80;101440.94;4998033;28;20041;-77
2023/03/29 03:07:00;;;;;;;11.38;3.42;;;;;;;4.99;80.61;101444.50;5001563;28;20020;-77
2023/03/29 03:09:26;;;;;;;7.82;3.40;;;;;;;5.00;80.00;101441.06;4981878;28;20034;-77
2023/03/29 03:11:52;;;;;;;6.88;3.33;;;;;;;5.03;79.33;101449.78;5009020;28;20414;-77
2023/03/29 03:14:21;;;;;;;6.15;3.30;;;;;;;5.05;80.16;101441.16;5013212;28;20033;-77
2023/03/29 03:16:48;;;;;;;6.38;3.13;;;;;;;5.10;79.30;101442.13;4985635;28;20026;-72
2023/03/29 03:19:14;;;;;;;7.70;3.10;;;;;;;5.13;78.40;101436.97;4995407;28;20486;-71
2023/03/29 03:21:40;;;;;;;6.35;3.35;;;;;;;5.15;78.83;101430.09;5013802;28;20032;-71
2023/03/29 03:24:07;;;;;;;6.45;3.45;;;;;;;5.16;77.96;101432.72;4981208;28;20030;-72
2023/03/29 03:26:32;;;;;;;7.68;3.28;;;;;;;5.18;78.16;101431.03;5013198;28;20029;-71
2023/03/29 03:29:01;;;;;;;7.93;3.08;;;;;;;5.19;78.12;101432.78;5012674;28;20076;-71
2023/03/29 03:31:28;;;;;;;6.95;3.15;;;;;;;5.23;77.42;101423.34;5013671;28;20022;-71
2023/03/29 03:33:54;;;;;;;5.72;3.03;;;;;;;5.22;77.35;101425.91;5013196;28;20025;-71
2023/03/29 03:36:24;;;;;;;7.32;3.17;;;;;;;5.25;77.29;101420.78;4999126;28;20026;-71
2023/03/29 03:38:50;;;;;;;;;;;;;;;5.30;76.14;101424.31;4979105;28;20048;-71
2023/03/29 03:41:17;;;;;;;8.38;3.00;;;;;;;5.32;76.38;101420.91;5013878;28;19954;-71
2023/03/29 03:43:44;;;;;;;5.57;2.95;;;;;;;5.31;77.15;101421.75;5012681;28;20041;-71
2023/03/29 03:46:10;;;;;;;8.32;2.75;;;;;;;5.33;76.20;101424.38;4981781;28;20128;-72
2023/03/29 03:48:36;;;;;;;4.93;2.55;;;;;;;5.31;76.77;101416.56;4986313;28;20116;-71
2023/03/29 03:51:02;;;;;;;7.38;3.03;;;;;;;5.32;77.54;101422.66;4994338;28;20128;-71
2023/03/29 03:53:27;;;;;;;5.97;2.50;;;;;;;5.33;77.26;101419.19;4985579;28;20037;-71
2023/03/29 03:55:56;;;;;;;5.57;2.40;;;;;;;5.36;76.72;101424.47;4986911;28;20045;-72
2023/03/29 03:58:23;;;;;;;6.30;2.50;;;;;;;5.36;77.53;101424.47;4999347;28;20052;-71
2023/03/29 04:00:52;;;;;;;7.65;2.88;;;;;;;5.33;76.96;101420.06;4985079;28;20420;-71
2023/03/29 04:03:17;;;;;;;7.20;2.65;;;;;;;5.34;75.90;101419.25;4982231;28;20425;-72
2023/03/29 04:05:44;;;;;;;5.63;2.53;;;;;;;5.37;76.27;101429.69;5001251;28;20038;-71
2023/03/29 04:08:11;;;;;;;5.22;2.45;;;;;;;5.41;75.92;101428.00;5016501;28;20092;-72
2023/03/29 04:10:38;;;;;;;5.45;2.70;;;;;;;5.41;75.91;101416.75;5017550;28;20026;-71
2023/03/29 04:13:04;;;;;;;5.72;2.60;;;;;;;5.40;75.16;101418.44;5015941;28;20029;-72
2023/03/29 04:15:32;;;;;;;6.03;3.08;;;;;;;5.42;75.59;101416.78;5016604;28;20527;-72
2023/03/29 04:17:59;;;;;;;5.65;2.88;;;;;;;5.44;75.37;101403.78;5016252;28;20489;-71
2023/03/29 04:20:26;;;;;;;6.25;2.90;;;;;;;5.42;75.60;101408.97;5016452;28;20025;-72
2023/03/29 04:22:52;;;;;;;5.15;2.78;;;;;;;5.43;75.38;101410.72;5014696;28;20033;-77
2023/03/29 04:25:18;;;;;;;6.20;2.83;;;;;;;5.43;75.85;101399.44;5000655;28;20393;-77
2023/03/29 04:27:44;;;;;;;5.28;2.92;;;;;;;5.42;75.19;101406.38;4983255;28;20025;-77
2023/03/29 04:30:12;;;;;;;6.50;3.00;;;;;;;5.42;75.48;101405.50;5015565;28;20067;-77
2023/03/29 04:32:37;;;;;;;4.60;2.80;;;;;;;5.42;75.56;101400.31;4999833;28;20029;-77
2023/03/29 04:35:03;;;;;;;4.93;2.72;;;;;;;5.45;75.20;101398.63;4984030;28;20029;-78
2023/03/29 04:37:30;;;;;;;6.72;3.35;;;;;;;5.45;75.11;101403.81;5009425;28;20485;-72
2023/03/29 04:39:59;;;;;;;6.53;3.10;;;;;;;5.47;74.99;101403.84;4996209;28;20109;-71
2023/03/29 04:42:27;;;;;;;5.35;2.90;;;;;;;5.44;74.75;101396.88;5010838;28;20036;-72
2023/03/29 04:44:56;;;;;;;5.70;2.80;;;;;;;5.47;75.13;101398.66;4999544;28;20338;-72
2023/03/29 04:47:21;;;;;;;8.20;2.97;;;;;;;5.46;75.86;101402.09;5013579;28;20033;-71
2023/03/29 04:49:48;;;;;;;7.15;3.17;;;;;;;5.47;75.25;101404.72;5013621;28;20025;-71
2023/03/29 04:52:13;;;;;;;7.72;3.22;;;;;;;5.45;75.46;101393.44;4995684;28;20026;-71
2023/03/29 04:54:39;;;;;;;5.70;3.20;;;;;;;5.46;75.71;101394.28;4987855;28;20034;-71
2023/03/29 04:57:06;;;;;;;7.18;2.88;;;;;;;5.46;75.78;101392.59;5010154;28;20493;-70
2023/03/29 04:59:32;;;;;;;8.88;3.00;;;;;;;5.45;76.04;101388.22;5013104;28;20048;-70
2023/03/29 05:01:58;;;;;;;8.70;4.20;;;;;;;5.45;75.87;101383.03;5013708;28;20025;-71
2023/03/29 05:04:27;;;;;;;7.95;3.28;;;;;;;5.46;76.08;101379.59;4986124;28;20458;-71
2023/03/29 05:06:54;;;;;;;6.25;3.53;;;;;;;5.48;75.79;101377.00;4997170;28;20061;-71
2023/03/29 05:09:19;;;;;;;5.57;3.03;;;;;;;5.49;76.13;101377.03;4999221;28;20046;-71
2023/03/29 05:11:45;;;;;;;7.28;3.22;;;;;;;5.51;75.86;101375.34;4981891;28;20032;-71
2023/03/29 05:14:10;;;;;;;8.52;5.38;;;;;;;5.55;75.43;101373.69;4999550;28;20439;-70
2023/03/29 05:16:36;;;;;;;6.47;3.03;;;;;;;5.57;75.50;101377.16;4996130;28;20030;-70
2023/03/29 05:19:02;;;;;;;7.35;3.83;;;;;;;5.60;75.14;101377.22;4999101;28;20029;-70
2023/03/29 05:21:28;;;;;;;6.07;2.95;;;;;;;5.61;75.31;101372.91;4995513;28;20040;-70
2023/03/29 05:23:54;;;;;;;9.10;3.88;;;;;;;5.64;75.49;101378.16;4990230;28;20050;-70
2023/03/29 05:26:22;;;;;;;6.65;3.50;;;;;;;5.67;75.37;101383.41;5011447;28;20481;-70
2023/03/29 05:28:49;;;;;;;8.82;3.50;;;;;;;5.65;75.60;101385.13;4994082;28;20084;-70
2023/03/29 05:31:15;;;;;;;8.27;3.55;;;;;;;5.67;75.23;101383.41;5013378;28;20384;-70
2023/03/29 05:33:41;;;;;;;7.55;3.22;;;;;;;5.69;75.33;101386.94;5003788;28;20034;-70
2023/03/29 05:36:09;;;;;;;5.88;3.35;;;;;;;5.69;75.95;101394.72;5012550;28;20040;-70
2023/03/29 05:38:35;;;;;;;15.77;6.30;;;;;;;5.69;76.03;101386.94;5011025;28;20033;-73
2023/03/29 05:41:01;;;;;;;7.18;3.50;;;;;;;5.72;75.74;101389.56;4998457;28;20091;-75
2023/03/29 05:43:26;;;;;;;7.25;3.00;;;;;;;5.73;75.50;101389.59;4997203;28;20433;-70
2023/03/29 05:45:53;;;;;;;6.80;3.60;;;;;;;5.77;75.63;101390.50;4998409;28;20055;-69
2023/03/29 05:48:19;;;;;;;8.48;3.40;;;;;;;5.79;75.69;101386.22;5012592;28;20021;-70
2023/03/29 05:50:53;;;;;;;8.38;3.50;;;;;;;5.83;75.58;101384.53;5018460;28;20029;-70
2023/03/29 05:53:21;;;;;;;5.43;3.15;;;;;;;5.87;76.14;101386.34;5011940;28;20021;-70
2023/03/29 05:55:46;;;;;;;8.20;3.38;;;;;;;5.87;76.48;101383.75;4994493;28;20052;-75
2023/03/29 05:58:13;;;;;;;5.75;3.50;;;;;;;5.90;75.94;101392.47;4977406;28;20033;-75
2023/03/29 06:00:41;;;;;;;7.75;3.78;;;;;;;5.93;75.79;101396.84;5012804;28;20025;-76
2023/03/29 06:03:15;;;;;;;7.10;3.50;;;;;;;5.98;75.97;101394.38;4995610;28;20041;-76
2023/03/29 06:05:41;;;;;;;8.30;3.70;;;;;;;6.00;76.41;101396.13;4990726;28;21765;-75
2023/03/29 06:08:07;;;;;;;7.28;3.90;;;;;;;6.04;76.51;101394.44;4992008;28;20119;-76
2023/03/29 06:10:35;;;;;;;6.28;3.95;;;;;;;6.07;75.79;101395.34;5012234;28;20056;-76
2023/03/29 06:13:00;;;;;;;8.90;4.47;;;;;;;6.14;75.74;101400.69;4982107;28;20501;-76
2023/03/29 06:15:45;;;;;;;8.65;4.30;;;;;;;6.19;76.15;101396.41;4985007;28;20120;-76
2023/03/29 06:18:10;;;;;;;6.47;3.80;;;;;;;6.20;76.44;101387.75;4996647;28;20033;-76
2023/03/29 06:20:36;;;;;;;6.22;3.42;;;;;;;6.26;76.25;101385.22;4997938;28;20418;-76
2023/03/29 06:23:01;;;;;;;10.90;3.90;;;;;;;6.29;76.52;101398.28;4994159;28;20045;-76
2023/03/29 06:25:26;;;;;;;7.53;3.47;;;;;;;6.35;75.15;101389.69;5008315;28;20534;-75
2023/03/29 06:27:53;;;;;;;9.43;4.47;;;;;;;6.38;75.97;101398.44;4978473;28;20021;-75
2023/03/29 06:30:22;;;;;;;7.18;3.75;;;;;;;6.45;75.87;101398.50;5007869;28;20090;-75
2023/03/29 06:32:49;;;;;;;8.03;4.20;;;;;;;6.48;76.25;101390.75;4995903;28;20021;-76
2023/03/29 06:35:15;;;;;;;7.10;3.53;;;;;;;6.51;76.38;101399.50;4993335;28;20026;-76
2023/03/29 06:37:48;;;;;;;8.18;4.20;;;;;;;6.57;75.62;101403.91;5014066;28;20049;-76
2023/03/29 06:40:17;;;;;;;8.10;3.80;;;;;;;6.57;75.87;101396.97;4996130;28;20064;-76
2023/03/29 06:42:43;;;;;;;9.40;4.05;;;;;;;6.64;76.64;101394.44;4997761;28;20112;-77
2023/03/29 06:45:09;;;;;;;10.10;3.92;;;;;;;6.67;76.28;101390.16;4988955;28;20025;-76
2023/03/29 06:47:35;;;;;;;10.05;4.15;;;;;;;6.74;74.93;101396.31;4981839;28;20030;-71
2023/03/29 06:50:00;;;;;;;12.57;3.83;;;;;;;6.80;75.84;101392.94;4978896;28;20116;-71
2023/03/29 06:52:26;;;;;;;8.55;4.35;;;;;;;6.84;75.17;101395.59;4997859;28;20137;-70
2023/03/29 06:54:51;;;;;;;10.95;4.40;;;;;;;6.87;75.63;101394.75;4981753;28;20084;-76
2023/03/29 06:57:17;;;;;;;8.45;4.07;;;;;;;6.91;75.46;101397.41;4996996;28;20489;-77
2023/03/29 06:59:43;;;;;;;9.57;4.43;;;;;;;6.96;75.51;101394.84;5000240;28;20083;-76
2023/03/29 07:02:11;;;;;;;9.10;4.75;;;;;;;7.03;75.57;101401.03;5031373;28;20040;-76
2023/03/29 07:04:37;;;;;;;12.57;7.28;;;;;;;7.05;76.01;101401.91;5015559;28;20029;-76
2023/03/29 07:07:03;;;;;;;9.07;4.30;;;;;;;7.10;75.92;101400.25;5010636;28;20036;-75
2023/03/29 07:09:29;;;;;;;11.85;6.13;;;;;;;7.17;75.81;101404.66;4994421;28;20043;-76
2023/03/29 07:11:56;;;;;;;10.48;5.53;;;;;;;7.22;76.14;101402.09;5032289;28;20408;-75
2023/03/29 07:14:22;;;;;;;11.00;5.82;;;;;;;7.25;75.93;101400.38;5016155;28;20033;-76
2023/03/29 07:19:43;;;;;;;20.10;9.20;;;;;;;7.42;75.74;101405.78;5114289;22;20120;-75
2023/03/29 07:25:00;;;;;;;14.52;5.97;;;;;;;7.51;76.01;101410.22;5318981;22;20057;-72
2023/03/29 07:27:25;;;;;;;18.48;9.32;;;;;;;7.51;75.70;101405.00;5352636;23;20029;-76
2023/03/29 07:29:51;;;;;;;15.98;7.43;;;;;;;7.58;75.96;101416.38;5638939;23;20056;-75
2023/03/29 07:32:17;;;;;;;12.25;5.72;;;;;;;7.62;75.23;101399.91;5018461;28;20400;-75
2023/03/29 07:34:42;;;;;;;11.38;5.90;;;;;;;7.66;76.05;101409.50;5037141;28;20071;-75
2023/03/29 07:37:08;;;;;;;12.60;6.65;;;;;;;7.73;75.75;101420.84;5005200;28;20101;-75
2023/03/29 07:39:35;;;;;;;9.90;5.32;;;;;;;7.75;75.65;101419.16;5005493;28;20052;-75
2023/03/29 07:42:03;;;;;;;10.18;4.63;;;;;;;7.77;75.24;101417.41;5002169;28;20517;-76
2023/03/29 07:44:28;;;;;;;13.30;7.47;;;;;;;7.82;75.42;101426.16;5001877;28;20098;-75
2023/03/29 07:46:54;;;;;;;9.35;4.53;;;;;;;7.83;74.84;101427.94;5027714;28;20421;-75
2023/03/29 07:49:19;;;;;;;13.10;5.55;;;;;;;7.87;75.70;101428.81;5021439;28;20025;-76
2023/03/29 07:51:48;;;;;;;12.57;6.78;;;;;;;7.90;75.96;101428.84;5018631;28;20025;-75
2023/03/29 07:54:13;;;;;;;13.48;7.47;;;;;;;7.94;75.92;101441.06;5034489;28;20435;-75
2023/03/29 07:56:38;;;;;;;10.32;5.78;;;;;;;7.95;76.01;101440.19;5000573;28;20076;-76
2023/03/29 07:59:04;;;;;;;11.10;6.90;;;;;;;8.00;75.84;101437.63;5006620;28;20119;-75
2023/03/29 08:01:29;;;;;;;14.05;6.00;;;;;;;8.02;75.55;101431.56;5004946;28;20024;-75
2023/03/29 08:03:55;;;;;;;11.77;5.60;;;;;;;8.05;76.62;101439.41;5019922;28;20453;-75
2023/03/29 08:06:21;;;;;;;11.27;5.75;;;;;;;8.06;77.13;101441.19;5012387;28;20036;-76
2023/03/29 08:08:46;;;;;;;11.50;6.10;;;;;;;8.06;77.46;101435.06;4993895;28;20025;-76
2023/03/29 08:11:12;;;;;;;10.15;5.97;;;;;;;8.10;78.38;101431.63;5003493;28;20476;-76
2023/03/29 08:13:38;;;;;;;10.52;5.78;;;;;;;8.10;78.86;101427.28;5008034;28;20039;-76
2023/03/29 08:16:04;;;;;;;9.65;5.57;;;;;;;8.11;79.10;101430.75;5019784;28;20372;-76
2023/03/29 08:18:30;;;;;;;10.90;5.78;;;;;;;8.10;79.52;101432.50;5004066;28;20465;-75
2023/03/29 08:20:56;;;;;;;13.35;6.53;;;;;;;8.13;80.09;101432.53;5001964;28;20057;-76
2023/03/29 08:23:22;;;;;;;12.13;6.18;;;;;;;8.15;80.46;101427.31;5007929;28;20091;-75
2023/03/29 08:25:47;;;;;;;11.50;5.65;;;;;;;8.19;81.06;101431.69;5018085;28;20021;-75
2023/03/29 08:28:13;;;;;;;11.05;5.78;;;;;;;8.22;80.47;101421.28;5028351;28;20033;-76
2023/03/29 08:30:38;;;;;;;10.00;5.80;;;;;;;8.25;81.50;101433.50;5018996;28;20489;-75
2023/03/29 08:33:04;;;;;;;12.18;5.97;;;;;;;8.27;81.23;101432.63;5025715;28;20480;-75
2023/03/29 08:35:29;;;;;;;12.65;6.15;;;;;;;8.28;81.58;101420.44;5005065;28;20307;-75
2023/03/29 08:37:55;;;;;;;10.43;5.97;;;;;;;8.32;81.88;101417.88;5011070;28;20039;-76
2023/03/29 08:40:26;;;;;;;12.77;6.03;;;;;;;8.37;81.56;101422.25;4992723;28;20029;-75
2023/03/29 08:43:35;;;;;;;10.55;6.07;;;;;;;8.43;81.40;101422.28;5051967;28;20021;-76
2023/03/29 08:46:32;;;;;;;11.95;6.30;;;;;;;8.53;81.48;101418.88;5011232;28;20042;-75
2023/03/29 08:49:04;;;;;;;12.48;6.22;;;;;;;8.66;82.68;101412.88;5018039;28;20025;-70
2023/03/29 08:51:44;;;;;;;10.07;5.82;;;;;;;8.76;82.63;101411.16;5042458;28;20044;-70
2023/03/29 08:54:24;;;;;;;14.93;6.25;;;;;;;8.77;81.73;101414.69;5039558;28;20118;-70
2023/03/29 08:56:51;;;;;;;11.70;5.88;;;;;;;8.74;81.26;101410.31;5028834;28;20480;-70
2023/03/29 08:59:21;;;;;;;12.02;5.95;;;;;;;8.78;81.26;101417.28;5000788;28;20025;-70
2023/03/29 09:01:50;;;;;;;11.85;6.07;;;;;;;8.81;81.99;101422.53;5022670;28;20089;-70
2023/03/29 09:04:22;;;;;;;13.73;6.60;;;;;;;8.96;82.00;101420.84;5046129;28;20020;-70
2023/03/29 09:06:47;;;;;;;13.88;7.07;;;;;;;8.97;81.88;101407.78;5035802;28;20032;-70
2023/03/29 09:09:20;;;;;;;12.13;6.57;;;;;;;8.97;81.06;101417.38;5015549;28;20473;-71
2023/03/29 09:11:51;;;;;;;10.20;6.15;;;;;;;8.96;81.22;101421.72;5028825;28;20029;-71
2023/03/29 09:14:34;;;;;;;12.95;6.85;;;;;;;8.99;81.97;101413.03;5066197;28;20029;-71
2023/03/29 09:17:10;;;;;;;10.82;6.07;;;;;;;9.09;81.44;101414.78;5035919;28;20448;-70
2023/03/29 09:20:15;;;;;;;14.27;7.32;;;;;;;9.22;81.32;101412.22;5038269;28;20025;-70
2023/03/29 09:22:49;;;;;;;12.05;6.68;;;;;;;9.39;81.34;101410.53;5041250;28;20033;-71
2023/03/29 09:25:24;;;;;;;11.73;6.53;;;;;;;9.40;80.23;101417.50;5062435;28;20044;-71
2023/03/29 09:28:19;;;;;;;11.93;5.95;;;;;;;9.48;80.29;101420.13;5038718;28;20086;-71
2023/03/29 09:31:11;;;;;;;13.77;6.82;;;;;;;9.53;79.87;101414.03;5030388;28;20067;-71
2023/03/29 09:33:49;;;;;;;11.88;6.32;;;;;;;9.56;80.17;101413.19;5048155;28;20036;-71
2023/03/29 09:36:16;;;;;;;12.32;5.80;;;;;;;9.52;78.71;101417.56;5035667;28;20036;-71
2023/03/29 09:38:46;;;;;;;10.48;5.88;;;;;;;9.51;79.63;101420.13;5054173;28;20055;-71
2023/03/29 09:41:56;;;;;;;9.98;5.82;;;;;;;9.52;79.01;101411.44;5038070;28;20095;-71
2023/03/29 09:44:27;;;;;;;12.82;6.25;;;;;;;9.33;80.81;101421.84;4991837;28;20217;-71
2023/03/29 09:47:05;;;;;;;;;;;;;;;9.37;80.60;101420.13;5020585;28;20029;-71
2023/03/29 09:49:35;;;;;;;11.40;6.55;;;;;;;9.21;81.88;101416.59;5042927;28;19915;-71
2023/03/29 09:52:08;;;;;;;14.50;6.90;;;;;;;9.25;83.77;101409.63;5035127;28;20035;-71
2023/03/29 09:54:33;;;;;;;11.63;6.43;;;;;;;9.25;83.23;101405.28;5037743;28;20479;-70
2023/03/29 09:56:59;;;;;;;12.68;7.03;;;;;;;9.33;83.82;101406.16;5005812;28;20116;-70
2023/03/29 09:59:24;;;;;;;12.88;7.07;;;;;;;9.42;83.77;101414.91;5026893;28;20389;-70
2023/03/29 10:01:50;;;;;;;12.45;7.13;;;;;;;9.34;83.56;101417.50;5018482;28;20025;-71
2023/03/29 10:04:16;;;;;;;13.35;7.43;;;;;;;9.28;83.86;101423.59;5028142;28;20072;-71
2023/03/29 10:06:48;;;;;;;12.75;7.75;;;;;;;9.24;84.24;101420.94;5033807;28;20433;-71
2023/03/29 10:09:20;;;;;;;13.73;7.63;;;;;;;9.28;85.01;101423.59;5036453;28;20119;-71
2023/03/29 10:11:50;;;;;;;12.68;8.40;;;;;;;9.36;85.16;101426.22;5038544;28;20028;-71
2023/03/29 10:14:29;;;;;;;12.48;7.75;;;;;;;9.50;85.12;101424.50;5029741;28;20112;-71
2023/03/29 10:16:58;;;;;;;13.20;8.07;;;;;;;9.59;85.22;101417.56;5035617;28;20425;-70
2023/03/29 10:19:35;;;;;;;14.88;8.45;;;;;;;9.64;84.78;101418.41;5015532;28;20469;-71
2023/03/29 10:22:04;;;;;;;12.98;8.70;;;;;;;9.61;84.34;101418.41;5039132;28;20090;-71
2023/03/29 10:24:30;;;;;;;13.93;8.23;;;;;;;9.53;84.30;101407.94;5042377;28;20020;-71
2023/03/29 10:27:05;;;;;;;16.23;8.80;;;;;;;9.55;85.72;101398.34;5018282;28;20440;-70
2023/03/29 10:29:42;;;;;;;12.57;8.00;;;;;;;9.56;85.66;101405.34;5034997;28;20020;-70
2023/03/29 10:32:37;;;;;;;15.55;9.00;;;;;;;9.59;85.26;101404.47;5022712;28;20053;-71
2023/03/29 10:35:13;;;;;;;12.18;7.50;;;;;;;9.57;85.53;101401.84;5026434;28;20034;-71
2023/03/29 10:37:43;;;;;;;11.18;7.93;;;;;;;9.68;86.07;101396.63;5047586;28;20048;-71
2023/03/29 10:40:20;;;;;;;11.43;8.00;;;;;;;9.67;86.14;101398.38;5044170;28;20094;-71
2023/03/29 10:42:52;;;;;;;13.55;8.27;;;;;;;9.66;85.88;101396.63;5030573;28;20028;-71
2023/03/29 10:45:28;;;;;;;11.48;7.43;;;;;;;9.78;86.07;101392.28;5015472;28;20440;-71
2023/03/29 10:47:56;;;;;;;12.05;7.68;;;;;;;10.03;86.03;101387.91;5045433;28;20017;-70
2023/03/29 10:50:22;;;;;;;11.75;7.10;;;;;;;10.17;84.88;101395.72;5044621;28;20028;-71
2023/03/29 10:52:49;;;;;;;13.30;8.02;;;;;;;10.50;86.27;101399.19;5031865;28;20051;-71
2023/03/29 10:55:15;;;;;;;15.02;6.88;;;;;;;10.66;84.23;101389.53;5039993;28;20033;-71
2023/03/29 10:58:01;;;;;;;12.65;7.55;;;;;;;10.83;83.11;101386.88;5013607;28;20041;-71
2023/03/29 11:00:45;;;;;;;10.88;6.82;;;;;;;10.89;81.06;101377.22;5025879;28;20022;-71
2023/03/29 11:03:39;;;;;;;11.63;7.30;;;;;;;11.04;81.85;101371.03;5031118;28;20032;-71
2023/03/29 11:06:19;;;;;;;11.98;7.65;;;;;;;11.24;81.24;101362.19;5039830;28;20029;-71
2023/03/29 11:08:53;;;;;;;13.98;7.88;;;;;;;11.43;80.64;101352.44;5033383;28;20025;-71
2023/03/29 11:11:30;;;;;;;11.98;6.25;;;;;;;11.39;77.98;101342.84;5031829;28;20033;-70
2023/03/29 11:14:12;;;;;;;11.63;6.93;;;;;;;11.48;79.26;101334.03;5050591;28;20043;-71
2023/03/29 11:17:06;;;;;;;10.20;7.00;;;;;;;11.47;77.34;101338.41;5033514;28;20049;-71
2023/03/29 11:20:16;;;;;;;10.02;6.78;;;;;;;11.38;77.81;101349.00;5027961;28;20044;-72
2023/03/29 11:22:48;;;;;;;11.13;6.93;;;;;;;11.29;78.81;101341.16;5033590;28;20035;-71
2023/03/29 11:25:48;;;;;;;11.30;6.88;;;;;;;11.37;79.16;101328.88;5032830;28;20681;-71
2023/03/29 11:28:17;;;;;;;10.65;7.70;;;;;;;11.43;78.71;101329.72;5024283;28;20032;-71
2023/03/29 11:30:56;;;;;;;12.05;7.07;;;;;;;11.47;78.12;101321.81;5033032;28;20037;-71
2023/03/29 11:33:40;;;;;;;31.60;21.73;;;;;;;11.65;78.41;101333.91;5026363;28;20472;-70
2023/03/29 11:36:49;;;;;;;10.05;6.80;;;;;;;11.74;76.27;101326.81;5023963;28;20112;-71
2023/03/29 11:39:14;;;;;;;11.85;6.90;;;;;;;11.75;77.59;101333.81;5018834;28;20160;-71
2023/03/29 11:41:47;;;;;;;12.43;7.15;;;;;;;11.83;76.56;101343.38;5038157;28;20101;-71
2023/03/29 11:44:21;;;;;;;10.70;6.80;;;;;;;11.79;75.52;101346.03;5027609;28;20031;-70
2023/03/29 11:47:16;;;;;;;19.55;7.28;;;;;;;11.79;76.35;101340.78;5039466;28;20397;-71
2023/03/29 11:49:48;;;;;;;11.88;6.68;;;;;;;11.71;76.07;101339.97;5028794;28;20041;-71
2023/03/29 11:52:13;;;;;;;10.93;6.97;;;;;;;11.78;76.29;101338.19;5032477;28;20233;-71